createdAt,value
2022-07-29T00:00:41.018Z,98347.25
2022-07-29T00:03:09.032Z,98341.34
2022-07-29T00:05:38.229Z,98322.53
2022-07-29T00:08:09.393Z,98303.06
2022-07-29T00:10:40.623Z,98293.91
2022-07-29T00:13:08.449Z,98270.19
2022-07-29T00:15:36.294Z,98244.66
2022-07-29T00:18:04.176Z,98227.66
2022-07-29T00:20:32.179Z,98205.72
2022-07-29T00:23:01.360Z,98189.41
2022-07-29T00:25:29.344Z,98175.84
2022-07-29T00:27:57.136Z,98174.34
2022-07-29T00:30:25.196Z,98158.19
2022-07-29T00:32:53.066Z,98144.72
2022-07-29T00:35:38.651Z,98125.00
2022-07-29T00:38:07.852Z,98120.88
2022-07-29T00:40:35.865Z,98113.34
2022-07-29T00:43:03.789Z,98088.69
2022-07-29T00:45:31.941Z,98078.72
2022-07-29T00:47:59.855Z,98058.13
2022-07-29T00:50:28.298Z,98049.66
2022-07-29T00:52:56.250Z,98042.25
2022-07-29T00:55:25.789Z,98040.63
2022-07-29T00:57:55.061Z,98033.78
2022-07-29T01:00:25.531Z,98021.88
2022-07-29T01:02:53.824Z,98015.84
2022-07-29T01:05:23.858Z,98014.19
2022-07-29T01:07:54.569Z,98015.97
2022-07-29T01:10:24.764Z,98014.34
2022-07-29T01:12:55.709Z,98015.16
2022-07-29T01:15:23.895Z,98022.00
2022-07-29T01:18:01.738Z,98013.50
2022-07-29T01:20:46.473Z,98006.00
2022-07-29T01:23:50.193Z,97990.66
2022-07-29T01:26:30.267Z,97983.13
2022-07-29T01:29:14.827Z,97983.13
2022-07-29T01:32:00.520Z,97978.91
2022-07-29T01:34:43.095Z,97979.88
2022-07-29T01:37:20.329Z,97975.63
2022-07-29T01:39:50.034Z,97972.19
2022-07-29T01:42:26.132Z,97967.13
2022-07-29T01:44:59.582Z,97973.16
2022-07-29T01:47:31.377Z,97960.13
2022-07-29T01:50:01.804Z,97956.03
2022-07-29T01:52:35.957Z,97962.22
2022-07-29T01:55:09.863Z,97950.16
2022-07-29T01:57:40.971Z,97948.53
2022-07-29T02:00:12.000Z,97940.84
2022-07-29T02:02:42.620Z,97941.97
2022-07-29T02:05:14.631Z,97935.94
2022-07-29T02:07:44.107Z,97929.91
2022-07-29T02:10:13.985Z,97930.88
2022-07-29T02:12:50.736Z,97928.41
2022-07-29T02:15:21.076Z,97937.06
2022-07-29T02:17:53.907Z,97924.16
2022-07-29T02:20:22.141Z,97918.28
2022-07-29T02:22:52.367Z,97912.41
2022-07-29T02:25:20.683Z,97902.97
2022-07-29T02:27:51.529Z,97902.28
2022-07-29T02:30:23.823Z,97899.81
2022-07-29T02:32:52.883Z,97896.41
2022-07-29T02:35:22.183Z,97884.34
2022-07-29T02:38:06.502Z,97888.91
2022-07-29T02:40:36.376Z,97885.47
2022-07-29T02:43:07.314Z,97883.00
2022-07-29T02:45:36.652Z,97882.19
2022-07-29T02:48:11.381Z,97882.19
2022-07-29T02:50:43.434Z,97877.13
2022-07-29T02:53:17.204Z,97878.75
2022-07-29T02:55:48.191Z,97874.53
2022-07-29T02:58:23.810Z,97872.88
2022-07-29T03:00:55.041Z,97869.47
2022-07-29T03:03:23.953Z,97876.31
2022-07-29T03:05:54.425Z,97867.84
2022-07-29T03:08:23.814Z,97864.41
2022-07-29T03:10:53.349Z,97873.03
2022-07-29T03:13:22.135Z,97867.16
2022-07-29T03:15:50.793Z,97864.69
2022-07-29T03:18:20.170Z,97842.53
2022-07-29T03:20:48.162Z,97832.41
2022-07-29T03:23:21.828Z,97821.47
2022-07-29T03:25:49.968Z,97814.75
2022-07-29T03:28:17.948Z,97803.81
2022-07-29T03:30:47.226Z,97785.91
2022-07-29T03:33:15.952Z,97782.59
2022-07-29T03:35:45.173Z,97775.94
2022-07-29T03:38:13.100Z,97761.44
2022-07-29T03:40:44.987Z,97766.75
2022-07-29T03:43:17.475Z,97763.22
2022-07-29T03:45:46.485Z,97771.84
2022-07-29T03:48:17.401Z,97758.97
2022-07-29T03:50:47.024Z,97753.09
2022-07-29T03:53:15.073Z,97737.78
2022-07-29T03:55:47.117Z,97736.28
2022-07-29T03:58:17.268Z,97729.59
2022-07-29T04:00:45.960Z,97729.59
2022-07-29T04:03:15.894Z,97721.13
2022-07-29T04:05:45.083Z,97703.34
2022-07-29T04:08:14.374Z,97697.50
2022-07-29T04:10:42.272Z,97695.03
2022-07-29T04:13:10.180Z,97686.41
2022-07-29T04:15:38.156Z,97676.13
2022-07-29T04:18:06.753Z,97674.66
2022-07-29T04:20:34.593Z,97683.44
2022-07-29T04:23:02.482Z,97666.19
2022-07-29T04:25:31.859Z,97662.91
2022-07-29T04:28:02.457Z,97661.28
2022-07-29T04:30:30.837Z,97652.81
2022-07-29T04:32:58.700Z,97652.81
2022-07-29T04:35:26.693Z,97648.59
2022-07-29T04:37:54.771Z,97645.97
2022-07-29T04:40:22.940Z,97650.38
2022-07-29T04:42:52.207Z,97652.81
2022-07-29T04:45:22.907Z,97666.47
2022-07-29T04:47:50.960Z,97669.78
2022-07-29T04:50:19.056Z,97674.00
2022-07-29T04:52:46.948Z,97671.56
2022-07-29T04:55:14.862Z,97679.22
2022-07-29T04:57:42.789Z,97681.81
2022-07-29T05:00:14.085Z,97693.69
2022-07-29T05:02:42.043Z,97712.28
2022-07-29T05:05:10.429Z,97741.13
2022-07-29T05:07:38.376Z,97738.38
2022-07-29T05:10:07.317Z,97753.69
2022-07-29T05:12:35.203Z,97769.00
2022-07-29T05:15:03.136Z,97780.75
2022-07-29T05:17:32.319Z,97794.44
2022-07-29T05:20:00.300Z,97807.97
2022-07-29T05:22:28.192Z,97810.56
2022-07-29T05:24:56.024Z,97814.16
2022-07-29T05:27:23.936Z,97809.75
2022-07-29T05:29:52.111Z,97808.94
2022-07-29T05:32:20.062Z,97804.84
2022-07-29T05:34:50.712Z,97805.69
2022-07-29T05:37:20.238Z,97816.75
2022-07-29T05:39:50.637Z,97820.97
2022-07-29T05:42:24.939Z,97835.34
2022-07-29T05:44:52.916Z,97854.91
2022-07-29T05:47:20.860Z,97864.06
2022-07-29T05:49:50.354Z,97887.88
2022-07-29T05:52:18.720Z,97917.72
2022-07-29T05:54:46.583Z,97932.94
2022-07-29T05:57:17.941Z,97964.25
2022-07-29T05:59:46.028Z,97986.16
2022-07-29T06:02:13.910Z,98033.78
2022-07-29T06:04:41.915Z,98067.75
2022-07-29T06:07:12.297Z,98095.84
2022-07-29T06:09:40.231Z,98117.75
2022-07-29T06:12:08.227Z,98146.81
2022-07-29T06:14:36.161Z,98167.09
2022-07-29T06:17:04.058Z,98191.72
2022-07-29T06:19:31.912Z,98213.81
2022-07-29T06:21:59.787Z,98229.84
2022-07-29T06:24:29.143Z,98253.56
2022-07-29T06:26:57.143Z,98282.53
2022-07-29T06:29:25.043Z,98313.25
2022-07-29T06:31:52.967Z,98340.53
2022-07-29T06:34:21.239Z,98366.03
2022-07-29T06:36:50.538Z,98395.81
2022-07-29T06:39:18.720Z,98424.47
2022-07-29T06:41:51.452Z,98457.69
2022-07-29T06:44:20.545Z,98481.72
2022-07-29T06:46:50.090Z,98496.25
2022-07-29T06:49:18.286Z,98517.53
2022-07-29T06:51:46.325Z,98538.69
2022-07-29T06:54:14.499Z,98571.09
2022-07-29T06:56:44.026Z,98582.06
2022-07-29T06:59:14.328Z,98614.63
2022-07-29T07:01:43.823Z,98630.56
2022-07-29T07:04:12.533Z,98663.00
2022-07-29T07:06:40.813Z,98701.34
2022-07-29T07:09:08.743Z,98726.78
2022-07-29T07:11:36.803Z,98760.06
2022-07-29T07:14:04.951Z,98786.44
2022-07-29T07:16:34.374Z,98816.97
2022-07-29T07:19:02.430Z,98854.53
2022-07-29T07:21:30.970Z,98891.13
2022-07-29T07:23:59.521Z,98934.72
2022-07-29T07:26:28.022Z,98970.50
2022-07-29T07:28:56.249Z,98999.44
2022-07-29T07:31:24.265Z,99038.81
2022-07-29T07:33:54.499Z,99072.97
2022-07-29T07:36:22.776Z,99096.00
2022-07-29T07:38:51.196Z,99121.59
2022-07-29T07:41:19.335Z,99151.47
2022-07-29T07:43:47.456Z,99175.47
2022-07-29T07:46:15.517Z,99209.63
2022-07-29T07:48:43.629Z,99234.16
2022-07-29T07:51:12.966Z,99264.38
2022-07-29T07:53:40.955Z,99278.72
2022-07-29T07:56:11.904Z,99305.28
2022-07-29T07:58:40.990Z,99318.97
2022-07-29T08:01:09.116Z,99345.44
2022-07-29T08:03:37.409Z,99373.72
2022-07-29T08:06:05.948Z,99403.66
2022-07-29T08:08:35.261Z,99436.13
2022-07-29T08:11:08.980Z,99470.47
2022-07-29T08:13:38.744Z,99462.63
2022-07-29T08:16:16.463Z,99479.84
2022-07-29T08:18:46.598Z,99487.44
2022-07-29T08:21:15.536Z,99499.31
2022-07-29T08:23:59.644Z,99519.06
2022-07-29T08:26:29.841Z,99551.66
2022-07-29T08:28:57.725Z,99581.63
2022-07-29T08:31:25.757Z,99617.53
2022-07-29T08:33:53.872Z,99666.41
2022-07-29T08:36:22.920Z,99716.72
2022-07-29T08:38:52.222Z,99776.03
2022-07-29T08:41:20.741Z,99817.91
2022-07-29T08:43:48.857Z,99846.28
2022-07-29T08:46:18.033Z,99871.88
2022-07-29T08:48:46.362Z,99887.25
2022-07-29T08:51:16.710Z,99921.81
2022-07-29T08:53:46.103Z,99932.88
2022-07-29T08:56:17.716Z,99943.00
2022-07-29T08:58:46.855Z,99965.38
2022-07-29T09:01:35.054Z,99959.44
2022-07-29T09:04:07.050Z,99938.72
2022-07-29T09:06:39.845Z,99920.84
2022-07-29T09:09:10.113Z,99901.88
2022-07-29T09:11:39.617Z,99874.50
2022-07-29T09:14:07.581Z,99862.59
2022-07-29T09:16:54.342Z,99835.78
2022-07-29T09:19:25.069Z,99825.69
2022-07-29T09:21:59.830Z,99815.44
2022-07-29T09:24:44.968Z,99800.94
2022-07-29T09:27:23.263Z,99782.81
2022-07-29T09:29:59.541Z,99764.03
2022-07-29T09:32:28.294Z,99744.34
2022-07-29T09:35:21.941Z,99710.09
2022-07-29T09:37:50.473Z,99691.13
2022-07-29T09:40:20.882Z,99682.59
2022-07-29T09:42:50.487Z,99668.06
2022-07-29T09:45:29.449Z,99656.19
2022-07-29T09:47:59.938Z,99637.25
2022-07-29T09:50:37.856Z,99617.66
2022-07-29T09:53:06.094Z,99609.06
2022-07-29T09:55:34.330Z,99598.03
2022-07-29T09:58:19.288Z,99575.66
2022-07-29T10:00:48.579Z,99554.13
2022-07-29T10:03:17.754Z,99560.19
2022-07-29T10:05:46.413Z,99570.56
2022-07-29T10:08:14.695Z,99586.00
2022-07-29T10:10:46.114Z,99594.59
2022-07-29T10:13:16.631Z,99607.41
2022-07-29T10:15:47.287Z,99628.84
2022-07-29T10:18:18.275Z,99652.75
2022-07-29T10:20:47.210Z,99699.84
2022-07-29T10:23:15.337Z,99743.53
2022-07-29T10:25:46.341Z,99783.63
2022-07-29T10:28:16.678Z,99836.88
2022-07-29T10:30:48.426Z,99904.50
2022-07-29T10:33:43.319Z,100036.56
2022-07-29T10:36:25.763Z,100197.09
2022-07-29T10:39:05.063Z,100311.44
2022-07-29T10:42:11.955Z,100393.94
2022-07-29T10:44:43.767Z,100456.69
2022-07-29T10:47:24.435Z,100517.63
2022-07-29T10:50:02.500Z,100561.63
2022-07-29T10:52:55.322Z,100642.56
2022-07-29T10:55:35.944Z,100743.34
2022-07-29T10:58:15.562Z,100800.19
2022-07-29T11:00:46.723Z,100847.56
2022-07-29T11:07:08.883Z,100896.69
2022-07-29T11:09:38.425Z,100909.47
2022-07-29T11:12:46.803Z,100956.94
2022-07-29T11:15:19.843Z,101017.34
2022-07-29T11:18:15.003Z,101078.59
2022-07-29T11:20:46.704Z,101147.66
2022-07-29T11:23:26.038Z,101187.34
2022-07-29T11:26:18.524Z,101253.91
2022-07-29T11:28:53.584Z,101354.91
2022-07-29T11:31:39.260Z,101467.31
2022-07-29T11:37:27.751Z,101652.56
2022-07-29T11:40:19.968Z,101726.28
2022-07-29T11:42:51.921Z,101743.44
2022-07-29T11:45:42.916Z,101812.88
2022-07-29T11:48:29.753Z,101862.13
2022-07-29T11:51:01.081Z,101938.50
2022-07-29T11:56:25.562Z,102050.25
2022-07-29T11:59:05.144Z,102093.53
2022-07-29T12:01:36.500Z,102114.41
2022-07-29T12:04:06.888Z,102100.41
2022-07-29T12:06:35.954Z,102091.00
2022-07-29T12:09:14.619Z,102097.03
2022-07-29T12:11:42.771Z,102126.44
2022-07-29T12:14:29.107Z,102169.91
2022-07-29T12:16:57.634Z,102233.34
2022-07-29T12:19:26.894Z,102287.09
2022-07-29T12:21:59.729Z,102316.56
2022-07-29T12:24:44.900Z,102348.69
2022-07-29T12:27:13.875Z,102378.22
2022-07-29T12:29:42.900Z,102385.25
2022-07-29T12:32:19.858Z,102385.97
2022-07-29T12:34:48.534Z,102424.16
2022-07-29T12:37:16.623Z,102456.38
2022-07-29T12:39:46.310Z,102499.78
2022-07-29T12:42:15.210Z,102544.09
2022-07-29T12:44:50.752Z,102535.41
2022-07-29T12:47:20.073Z,102532.63
2022-07-29T12:49:48.635Z,102500.38
2022-07-29T12:52:27.001Z,102526.47
2022-07-29T12:54:56.370Z,102601.25
2022-07-29T12:57:24.933Z,102625.56
2022-07-29T13:00:10.224Z,102690.97
2022-07-29T13:02:38.327Z,102697.78
2022-07-29T13:05:09.242Z,102670.72
2022-07-29T13:07:54.276Z,102654.16
2022-07-29T13:10:26.869Z,102653.22
2022-07-29T13:13:06.334Z,102637.59
2022-07-29T13:15:34.903Z,102656.72
2022-07-29T13:18:03.165Z,102713.19
2022-07-29T13:20:31.772Z,102790.56
2022-07-29T13:23:00.727Z,102898.78
2022-07-29T13:25:32.675Z,102981.50
2022-07-29T13:28:01.382Z,102950.09
2022-07-29T13:30:31.212Z,102964.16
2022-07-29T13:32:59.145Z,102986.59
2022-07-29T13:35:29.487Z,103071.16
2022-07-29T13:37:57.551Z,103154.16
2022-07-29T13:40:25.684Z,103202.91
2022-07-29T13:42:54.964Z,103211.53
2022-07-29T13:45:23.159Z,103214.19
2022-07-29T13:47:51.039Z,103086.78
2022-07-29T13:50:18.980Z,103069.13
2022-07-29T13:52:49.047Z,103171.22
2022-07-29T13:55:16.941Z,103290.75
2022-07-29T13:57:44.890Z,103372.91
2022-07-29T14:00:16.039Z,103366.75
2022-07-29T14:02:44.162Z,103284.56
2022-07-29T14:05:12.132Z,103256.47
2022-07-29T14:07:40.744Z,103334.25
2022-07-29T14:10:09.817Z,103314.94
2022-07-29T14:12:37.804Z,103394.44
2022-07-29T14:15:06.858Z,103487.91
2022-07-29T14:17:36.373Z,103529.84
2022-07-29T14:20:04.672Z,103551.59
2022-07-29T14:22:32.648Z,103446.66
2022-07-29T14:25:01.485Z,103396.69
2022-07-29T14:27:38.737Z,103412.47
2022-07-29T14:30:08.429Z,103299.63
2022-07-29T14:32:37.826Z,103211.34
2022-07-29T14:35:06.670Z,103168.44
2022-07-29T14:37:39.761Z,103269.59
2022-07-29T14:40:10.183Z,103418.16
2022-07-29T14:42:38.495Z,103547.50
2022-07-29T14:45:07.981Z,103718.09
2022-07-29T14:47:37.787Z,103753.09
2022-07-29T14:50:07.473Z,103542.06
2022-07-29T14:52:35.836Z,103287.50
2022-07-29T14:55:04.322Z,103159.19
2022-07-29T14:57:32.930Z,103090.13
2022-07-29T15:00:00.852Z,103070.75
2022-07-29T15:02:52.229Z,103087.44
2022-07-29T15:05:18.322Z,103048.84
2022-07-29T15:07:46.156Z,103123.00
2022-07-29T15:10:14.801Z,103147.38
2022-07-29T15:12:43.549Z,103128.09
2022-07-29T15:15:11.723Z,103145.56
2022-07-29T15:17:39.650Z,103176.00
2022-07-29T15:20:08.415Z,103135.56
2022-07-29T15:22:39.040Z,103092.03
2022-07-29T15:25:08.043Z,103072.75
2022-07-29T15:27:35.988Z,103063.94
2022-07-29T15:30:04.086Z,103101.41
2022-07-29T15:32:32.073Z,103169.59
2022-07-29T15:35:00.100Z,103271.78
2022-07-29T15:37:29.291Z,103399.19
2022-07-29T15:40:18.289Z,103543.38
2022-07-29T15:42:46.214Z,103596.72
2022-07-29T15:45:14.143Z,103571.34
2022-07-29T15:47:42.174Z,103540.59
2022-07-29T15:50:15.664Z,103565.16
2022-07-29T15:52:43.810Z,103554.56
2022-07-29T15:55:11.774Z,103524.63
2022-07-29T15:57:41.547Z,103508.06
2022-07-29T16:00:10.794Z,103479.16
2022-07-29T16:02:38.709Z,103386.31
2022-07-29T16:05:09.451Z,103318.97
2022-07-29T16:07:37.683Z,103256.97
2022-07-29T16:10:07.929Z,103166.97
2022-07-29T16:12:35.877Z,103045.53
2022-07-29T16:15:09.761Z,102886.75
2022-07-29T16:17:38.875Z,102756.75
2022-07-29T16:20:08.217Z,102730.72
2022-07-29T16:22:36.243Z,102727.81
2022-07-29T16:25:04.253Z,102700.84
2022-07-29T16:27:37.934Z,102652.97
2022-07-29T16:30:10.007Z,102590.19
2022-07-29T16:32:38.328Z,102505.69
2022-07-29T16:35:07.103Z,102440.47
2022-07-29T16:37:36.557Z,102342.16
2022-07-29T16:40:06.147Z,102265.63
2022-07-29T16:42:46.439Z,102200.56
2022-07-29T16:45:16.569Z,102121.44
2022-07-29T16:47:46.175Z,102045.81
2022-07-29T16:50:14.095Z,102017.97
2022-07-29T16:52:42.147Z,101982.28
2022-07-29T16:55:10.322Z,101945.06
2022-07-29T16:57:38.159Z,101905.91
2022-07-29T17:00:07.762Z,101874.81
2022-07-29T17:02:38.640Z,101832.19
2022-07-29T17:05:07.855Z,101776.69
2022-07-29T17:07:35.847Z,101746.34
2022-07-29T17:10:05.132Z,101717.69
2022-07-29T17:12:33.206Z,101695.19
2022-07-29T17:15:01.117Z,101670.03
2022-07-29T17:17:39.096Z,101653.69
2022-07-29T17:20:17.580Z,101634.41
2022-07-29T17:22:45.672Z,101610.25
2022-07-29T17:25:21.073Z,101585.13
2022-07-29T17:27:50.579Z,101550.38
2022-07-29T17:30:19.007Z,101539.31
2022-07-29T17:32:47.014Z,101514.03
2022-07-29T17:35:33.831Z,101495.06
2022-07-29T17:38:01.938Z,101458.50
2022-07-29T17:40:29.816Z,101436.13
2022-07-29T17:42:57.828Z,101413.53
2022-07-29T17:45:26.210Z,101391.94
2022-07-29T17:48:14.146Z,101378.22
2022-07-29T17:50:43.444Z,101349.50
2022-07-29T17:53:16.347Z,101319.38
2022-07-29T17:55:45.710Z,101283.69
2022-07-29T17:58:13.783Z,101265.81
2022-07-29T18:00:41.786Z,101225.94
2022-07-29T18:03:10.058Z,101200.84
2022-07-29T18:05:38.181Z,101162.91
2022-07-29T18:08:07.614Z,101148.16
2022-07-29T18:10:35.679Z,101134.47
2022-07-29T18:13:04.046Z,101102.44
2022-07-29T18:15:32.026Z,101080.00
2022-07-29T18:17:59.981Z,101050.66
2022-07-29T18:20:28.169Z,101019.47
2022-07-29T18:22:56.090Z,100986.75
2022-07-29T18:25:25.708Z,100960.97
2022-07-29T18:27:58.420Z,100935.09
2022-07-29T18:30:28.248Z,100903.75
2022-07-29T18:33:19.871Z,100891.78
2022-07-29T18:35:44.930Z,100860.72
2022-07-29T18:38:12.932Z,100840.88
2022-07-29T18:40:42.958Z,100826.25
2022-07-29T18:43:10.905Z,100802.91
2022-07-29T18:45:39.594Z,100790.91
2022-07-29T18:48:11.853Z,100780.78
2022-07-29T18:50:41.362Z,100751.28
2022-07-29T18:53:09.692Z,100727.09
2022-07-29T18:55:37.569Z,100703.88
2022-07-29T18:58:06.971Z,100683.19
2022-07-29T19:00:35.410Z,100674.69
2022-07-29T19:03:04.205Z,100656.50
2022-07-29T19:05:32.633Z,100632.31
2022-07-29T19:08:00.467Z,100602.94
2022-07-29T19:10:28.381Z,100569.59
2022-07-29T19:12:56.804Z,100529.16
2022-07-29T19:15:26.377Z,100474.06
2022-07-29T19:17:57.786Z,100414.66
2022-07-29T19:20:28.666Z,100382.97
2022-07-29T19:22:56.833Z,100344.28
2022-07-29T19:25:25.028Z,100316.75
2022-07-29T19:27:52.981Z,100270.47
2022-07-29T19:30:21.321Z,100183.66
2022-07-29T19:32:51.104Z,100107.41
2022-07-29T19:35:25.609Z,100030.91
2022-07-29T19:37:54.563Z,99933.44
2022-07-29T19:40:23.103Z,99839.03
2022-07-29T19:42:51.738Z,99736.94
2022-07-29T19:45:20.545Z,99632.56
2022-07-29T19:47:48.781Z,99541.94
2022-07-29T19:50:18.114Z,99477.97
2022-07-29T19:52:47.078Z,99405.31
2022-07-29T19:55:15.619Z,99347.91
2022-07-29T19:57:43.952Z,99325.84
2022-07-29T20:00:14.150Z,99302.78
2022-07-29T20:02:43.249Z,99289.13
2022-07-29T20:05:12.298Z,99271.34
2022-07-29T20:07:41.742Z,99238.91
2022-07-29T20:10:11.034Z,99209.97
2022-07-29T20:12:39.037Z,99170.53
2022-07-29T20:15:09.294Z,99160.50
2022-07-29T20:17:44.305Z,99129.78
2022-07-29T20:20:12.791Z,99115.44
2022-07-29T20:22:42.134Z,99099.13
2022-07-29T20:25:11.936Z,99087.28
2022-07-29T20:27:40.606Z,99065.25
2022-07-29T20:30:13.356Z,99042.09
2022-07-29T20:32:41.907Z,99034.69
2022-07-29T20:35:12.012Z,99018.56
2022-07-29T20:37:55.803Z,98999.00
2022-07-29T20:40:24.271Z,98987.03
2022-07-29T20:42:52.109Z,98972.84
2022-07-29T20:45:20.093Z,98948.22
2022-07-29T20:47:48.047Z,98916.53
2022-07-29T20:50:16.038Z,98907.19
2022-07-29T20:52:45.252Z,98920.97
2022-07-29T20:55:13.163Z,98931.94
2022-07-29T20:57:41.234Z,98938.81
2022-07-29T21:00:10.407Z,98944.91
2022-07-29T21:02:38.396Z,98945.84
2022-07-29T21:05:07.271Z,98942.56
2022-07-29T21:07:35.313Z,98926.34
2022-07-29T21:10:05.915Z,98918.06
2022-07-29T21:12:33.845Z,98903.50
2022-07-29T21:15:05.739Z,98889.84
2022-07-29T21:17:35.942Z,98864.53
2022-07-29T21:20:05.448Z,98845.81
2022-07-29T21:22:33.297Z,98833.84
2022-07-29T21:25:01.740Z,98833.84
2022-07-29T21:27:48.421Z,98845.28
2022-07-29T21:30:16.376Z,98838.38
2022-07-29T21:32:44.359Z,98827.38
2022-07-29T21:35:30.321Z,98817.22
2022-07-29T21:38:00.883Z,98804.53
2022-07-29T21:40:29.963Z,98801.25
2022-07-29T21:42:59.259Z,98797.13
2022-07-29T21:45:27.400Z,98798.91
2022-07-29T21:47:55.308Z,98787.91
2022-07-29T21:50:23.227Z,98788.75
2022-07-29T21:52:51.115Z,98787.78
2022-07-29T21:55:19.378Z,98782.13
2022-07-29T21:57:48.990Z,98760.84
2022-07-29T22:00:18.475Z,98753.25
2022-07-29T22:06:35.409Z,98749.28
2022-07-29T22:09:03.318Z,98738.28
2022-07-29T22:11:31.501Z,98734.84
2022-07-29T22:13:59.846Z,98730.72
2022-07-29T22:16:27.762Z,98719.72
2022-07-29T22:18:55.685Z,98713.81
2022-07-29T22:21:23.563Z,98713.97
2022-07-29T22:23:52.849Z,98724.28
2022-07-29T22:26:20.757Z,98724.28
2022-07-29T22:28:48.572Z,98725.25
2022-07-29T22:31:16.986Z,98727.84
2022-07-29T22:33:44.936Z,98734.88
2022-07-29T22:36:12.981Z,98744.22
2022-07-29T22:38:40.891Z,98754.53
2022-07-29T22:41:10.214Z,98752.06
2022-07-29T22:43:43.488Z,98724.69
2022-07-29T22:46:12.054Z,98724.84
2022-07-29T22:48:40.099Z,98732.66
2022-07-29T22:51:08.271Z,98724.97
2022-07-29T22:53:37.021Z,98717.44
2022-07-29T22:56:05.642Z,98726.91
2022-07-29T22:58:34.948Z,98732.81
2022-07-29T23:01:02.885Z,98736.41
2022-07-29T23:03:30.911Z,98735.56
2022-07-29T23:05:58.838Z,98737.38
2022-07-29T23:08:26.719Z,98741.78
2022-07-29T23:10:54.602Z,98735.72
2022-07-29T23:13:22.580Z,98736.66
2022-07-29T23:15:51.813Z,98736.81
2022-07-29T23:18:20.022Z,98727.31
2022-07-29T23:20:48.165Z,98734.34
2022-07-29T23:23:16.052Z,98737.78
2022-07-29T23:25:43.928Z,98731.88
2022-07-29T23:28:13.237Z,98721.81
2022-07-29T23:30:41.715Z,98706.59
2022-07-29T23:33:11.059Z,98683.63
2022-07-29T23:35:39.073Z,98662.47
2022-07-29T23:38:07.352Z,98647.19
2022-07-29T23:40:35.324Z,98631.94
2022-07-29T23:43:03.164Z,98629.75
2022-07-29T23:45:44.631Z,98603.94
2022-07-29T23:48:15.041Z,98595.53
2022-07-29T23:50:43.655Z,98594.88
2022-07-29T23:53:12.066Z,98591.53
2022-07-29T23:55:39.978Z,98583.88
2022-07-29T23:58:07.874Z,98583.03
